pornogorod.com alexa rank chart, pornogorod.com alexa rank daily changes

pornogorod.com alexa rank chart, pornogorod.com alexa rank daily changes

pornogorod.com
Actual rank:
57 064

RANK HISTORY

Date Rank Diff
2017/01/22 57 064 -1 158
2017/01/21 58 222 -1 312
2017/01/20 59 534 -1 193
2017/01/19 60 727 -999
2017/01/18 61 726 -2 345
2017/01/17 64 071 -2 252
2017/01/16 66 323 -1 742
2017/01/15 68 065 -2 182
2017/01/14 70 247 -2 667
2017/01/13 72 914 -1 377
2017/01/12 74 291 -2 064
2017/01/11 76 355 -192
2017/01/10 76 547 -746
2017/01/09 77 293 -1 284
2017/01/08 78 577 -1 847
2017/01/07 80 424 -4 938
2017/01/06 85 362 -3 437
2017/01/05 88 799 -3 626
2017/01/04 92 425 -6 532
2017/01/03 98 957 -4 786
2017/01/02 103 743 -5 369
2017/01/01 109 112 -2 418
2016/12/31 111 530 -988
2016/12/30 112 518 -3 129
2016/12/29 115 647 -2 789
2016/12/28 118 436 -2 302
2016/12/27 120 738 -1 293
2016/12/26 122 031 -4 142
2016/12/25 126 173 -2 030
2016/12/24 128 203 -3 964
2016/12/23 132 167 -975
2016/12/22 133 142 +50
2016/12/21 133 092 -66
2016/12/20 133 158 -727
2016/12/19 133 885 -803
2016/12/18 134 688 -2 783
2016/12/17 137 471 -1 343
2016/12/16 138 814 +378
2016/12/15 138 436 -907
2016/12/14 139 343 +485
2016/12/13 138 858 -120
2016/12/12 138 978 -1 288
2016/12/11 140 266 -1 818
2016/12/10 142 084 -2 353
2016/12/09 144 437 -694
2016/12/08 145 131 +197
2016/12/07 144 934 +1 207
2016/12/06 143 727 -1 664
2016/12/05 145 391 -1 023
2016/12/04 146 414 -4 911
2016/12/02 151 325 -2 270
2016/12/01 153 595 -5 137
2016/11/30 158 732 -1 641
2016/11/29 160 373 -1 117
2016/11/28 161 490 -5 894
2016/11/27 167 384 -1 604
2016/11/26 168 988 -1 241
2016/11/25 170 229 -703
2016/11/24 170 932 +1 757
2016/11/23 169 175

WIDGET FOR YOUR SITE

DOMAINS WITH THE NEAREST RANK

Domain Rank
24gadget.ru 57 059
dailyvibes.org 57 060
thecommonsenseshow.com 57 061
misemedia.net 57 062
ks.gov 57 063
pornogorod.com 57 064
slot.ng 57 065
webspread.com.cn 57 066
culturepsg.com 57 067
existentialcomics.com 57 068
afroromance.com 57 069

DOMAINS WITH THE NEAREST RANK BY TLD .com

Domain Rank
students-bh.com 57 051
winekee.com 57 052
mizuho-sc.com 57 054
shipmentmanager.com 57 055
thecommonsenseshow.com 57 061
pornogorod.com 57 064
culturepsg.com 57 067
existentialcomics.com 57 068
afroromance.com 57 069
bpm-power.com 57 071
wiwide.com 57 072